sensor_id;sensor_type;location;lat;lon;timestamp;temperature;humidity
75357;HTU21D;63946;51.986;5.930;2022-11-20T07:09:21;-1.95;67.41
75357;HTU21D;63946;51.986;5.930;2022-11-20T07:12:26;-1.92;67.66
75357;HTU21D;63946;51.986;5.930;2022-11-20T07:15:06;-1.90;67.48
75357;HTU21D;63946;51.986;5.930;2022-11-20T07:17:42;-1.86;67.43
75357;HTU21D;63946;51.986;5.930;2022-11-20T07:20:23;-1.83;67.43
75357;HTU21D;63946;51.986;5.930;2022-11-20T07:23:02;-1.84;67.48
75357;HTU21D;63946;51.986;5.930;2022-11-20T07:25:41;-1.82;67.45
75357;HTU21D;63946;51.986;5.930;2022-11-20T07:28:20;-1.80;67.43
75357;HTU21D;63946;51.986;5.930;2022-11-20T07:31:04;-1.77;67.43
75357;HTU21D;63946;51.986;5.930;2022-11-20T07:34:00;-1.74;67.33
75357;HTU21D;63946;51.986;5.930;2022-11-20T07:36:34;-1.71;67.36
75357;HTU21D;63946;51.986;5.930;2022-11-20T07:39:09;-1.70;67.36
75357;HTU21D;63946;51.986;5.930;2022-11-20T07:41:57;-1.69;67.27
75357;HTU21D;63946;51.986;5.930;2022-11-20T07:44:29;-1.64;67.30
75357;HTU21D;63946;51.986;5.930;2022-11-20T07:46:58;-1.64;67.24
75357;HTU21D;63946;51.986;5.930;2022-11-20T07:49:30;-1.63;67.51
75357;HTU21D;63946;51.986;5.930;2022-11-20T07:52:06;-1.59;67.73
75357;HTU21D;63946;51.986;5.930;2022-11-20T07:54:38;-1.50;68.00
75357;HTU21D;63946;51.986;5.930;2022-11-20T07:57:07;-1.45;68.01
75357;HTU21D;63946;51.986;5.930;2022-11-20T07:59:49;-1.42;68.23
75357;HTU21D;63946;51.986;5.930;2022-11-20T08:02:40;-1.39;68.37
75357;HTU21D;63946;51.986;5.930;2022-11-20T08:05:22;-1.39;68.52
75357;HTU21D;63946;51.986;5.930;2022-11-20T08:07:55;-1.35;68.73
75357;HTU21D;63946;51.986;5.930;2022-11-20T08:10:34;-1.26;68.69
75357;HTU21D;63946;51.986;5.930;2022-11-20T08:13:11;-1.14;68.39
75357;HTU21D;63946;51.986;5.930;2022-11-20T08:16:01;-1.04;68.23
75357;HTU21D;63946;51.986;5.930;2022-11-20T08:18:36;-0.98;68.10
75357;HTU21D;63946;51.986;5.930;2022-11-20T19:18:37;3.91;77.56
75357;HTU21D;63946;51.986;5.930;2022-11-20T19:49:49;4.05;76.91
75357;HTU21D;63946;51.986;5.930;2022-11-20T19:52:56;4.00;77.01
75357;HTU21D;63946;51.986;5.930;2022-11-20T20:02:58;4.17;76.66
75357;HTU21D;63946;51.986;5.930;2022-11-20T20:05:57;4.00;76.66
75357;HTU21D;63946;51.986;5.930;2022-11-20T20:08:41;3.86;77.02
75357;HTU21D;63946;51.986;5.930;2022-11-20T20:11:21;3.80;77.27
75357;HTU21D;63946;51.986;5.930;2022-11-20T20:14:01;3.82;77.21
75357;HTU21D;63946;51.986;5.930;2022-11-20T20:17:02;3.77;77.26
75357;HTU21D;63946;51.986;5.930;2022-11-20T20:19:51;3.78;77.27
75357;HTU21D;63946;51.986;5.930;2022-11-20T20:22:59;3.82;77.18
75357;HTU21D;63946;51.986;5.930;2022-11-20T20:25:49;3.80;77.23
75357;HTU21D;63946;51.986;5.930;2022-11-20T20:28:21;3.79;77.27
75357;HTU21D;63946;51.986;5.930;2022-11-20T20:31:22;3.80;77.27
75357;HTU21D;63946;51.986;5.930;2022-11-20T20:34:11;3.87;77.10
75357;HTU21D;63946;51.986;5.930;2022-11-20T20:36:55;3.83;77.10
75357;HTU21D;63946;51.986;5.930;2022-11-20T20:40:13;3.80;77.21
75357;HTU21D;63946;51.986;5.930;2022-11-20T20:43:12;3.87;76.98
75357;HTU21D;63946;51.986;5.930;2022-11-20T20:46:25;3.95;76.89
75357;HTU21D;63946;51.986;5.930;2022-11-20T20:49:24;3.99;76.75
75357;HTU21D;63946;51.986;5.930;2022-11-20T20:52:13;4.06;76.63
75357;HTU21D;63946;51.986;5.930;2022-11-20T20:55:17;4.17;76.41
75357;HTU21D;63946;51.986;5.930;2022-11-20T20:58:17;4.20;76.21
75357;HTU21D;63946;51.986;5.930;2022-11-20T21:01:20;4.21;76.12
75357;HTU21D;63946;51.986;5.930;2022-11-20T21:04:07;4.17;76.09
75357;HTU21D;63946;51.986;5.930;2022-11-20T21:06:50;4.12;76.19
75357;HTU21D;63946;51.986;5.930;2022-11-20T21:10:10;4.18;76.14
75357;HTU21D;63946;51.986;5.930;2022-11-20T21:13:22;4.18;75.91
75357;HTU21D;63946;51.986;5.930;2022-11-20T21:16:38;4.16;76.04
75357;HTU21D;63946;51.986;5.930;2022-11-20T21:19:55;4.16;75.96
75357;HTU21D;63946;51.986;5.930;2022-11-20T21:23:09;4.14;75.94
75357;HTU21D;63946;51.986;5.930;2022-11-20T21:26:12;4.14;75.92
75357;HTU21D;63946;51.986;5.930;2022-11-20T21:28:49;4.04;76.12
75357;HTU21D;63946;51.986;5.930;2022-11-20T21:31:25;4.02;76.28
75357;HTU21D;63946;51.986;5.930;2022-11-20T21:34:10;4.06;76.33
75357;HTU21D;63946;51.986;5.930;2022-11-20T21:36:41;4.06;76.09
75357;HTU21D;63946;51.986;5.930;2022-11-20T21:39:43;3.98;76.25
75357;HTU21D;63946;51.986;5.930;2022-11-20T21:42:16;3.95;76.30
75357;HTU21D;63946;51.986;5.930;2022-11-20T21:44:53;3.98;76.20
75357;HTU21D;63946;51.986;5.930;2022-11-20T21:47:34;3.91;76.37
75357;HTU21D;63946;51.986;5.930;2022-11-20T21:51:16;3.85;76.40
75357;HTU21D;63946;51.986;5.930;2022-11-20T21:54:37;3.85;76.39
75357;HTU21D;63946;51.986;5.930;2022-11-20T21:57:37;3.89;76.37
75357;HTU21D;63946;51.986;5.930;2022-11-20T22:00:54;3.98;76.11
75357;HTU21D;63946;51.986;5.930;2022-11-20T22:03:59;4.06;75.81
75357;HTU21D;63946;51.986;5.930;2022-11-20T22:10:24;4.02;75.77
75357;HTU21D;63946;51.986;5.930;2022-11-20T22:17:17;4.08;75.58
75357;HTU21D;63946;51.986;5.930;2022-11-20T22:20:52;4.09;75.54
75357;HTU21D;63946;51.986;5.930;2022-11-20T22:24:32;4.04;75.60
75357;HTU21D;63946;51.986;5.930;2022-11-20T22:31:27;4.02;75.92
75357;HTU21D;63946;51.986;5.930;2022-11-20T22:49:07;4.04;75.56
75357;HTU21D;63946;51.986;5.930;2022-11-20T22:52:58;3.99;75.72
